<?xml version="1.0" encoding="UTF-8"?>
<gpx version="1.1" creator="2bulu-scraper" xmlns="http://www.topografix.com/GPX/1/1">
  <metadata><name>自贡五条沟路线</name><desc>source: 2bulu.com trackId=78870277; exported 2026-09-01T15:45:32.112Z</desc>
    <bounds minlat="29.0017289" minlon="104.7700911" maxlat="29.0105198" maxlon="104.7850406"/>
    <link href="https://www.2bulu.com/track/t-UZcQONkp9TTp%252FR2KBg5Tzw%253D%253D.htm"><text>2bulu 源页面</text></link>
  </metadata>
  <wpt lat="29.0091403" lon="104.7770422"><ele>321</ele><name>
        </name></wpt>
  <wpt lat="29.0089886" lon="104.7770449"><ele>325</ele><name>
        </name></wpt>
  <wpt lat="29.0088945" lon="104.7770527"><ele>324</ele><name>直行

        </name></wpt>
  <wpt lat="29.0080437" lon="104.7773734"><ele>323</ele><name>
        </name></wpt>
  <wpt lat="29.0080437" lon="104.7773734"><ele>323</ele><name>入口中间
        </name></wpt>
  <wpt lat="29.0073732" lon="104.7768907"><ele>319</ele><name>
        </name></wpt>
  <wpt lat="29.0073732" lon="104.7768907"><ele>319</ele><name>
        </name></wpt>
  <wpt lat="29.0068059" lon="104.7765072"><ele>299</ele><name>
        </name></wpt>
  <wpt lat="29.0068059" lon="104.7765072"><ele>299</ele><name>
        </name></wpt>
  <wpt lat="29.0077083" lon="104.7745283"><ele>299</ele><name>
        </name></wpt>
  <wpt lat="29.0086603" lon="104.7740374"><ele>298</ele><name>
        </name></wpt>
  <wpt lat="29.0086603" lon="104.7740374"><ele>298</ele><name>岔路
        </name></wpt>
  <wpt lat="29.008725" lon="104.7738"><ele>286</ele><name>
        </name></wpt>
  <wpt lat="29.0088497" lon="104.7730106"><ele>273</ele><name>
        </name></wpt>
  <wpt lat="29.0086647" lon="104.7722669"><ele>270</ele><name>
        </name></wpt>
  <wpt lat="29.0076061" lon="104.7708457"><ele>261</ele><name>
        </name></wpt>
  <wpt lat="29.0074734" lon="104.770723"><ele>262</ele><name>
        </name></wpt>
  <wpt lat="29.0105198" lon="104.7764195"><ele>314</ele><name>
        </name></wpt>
  <trk><name>自贡五条沟路线</name>
      <trkseg>
        <trkpt lat="29.0091403" lon="104.7770422"><ele>320.8</ele><time>2026-02-04T22:05:00.000Z</time></trkpt>
        <trkpt lat="29.0090749" lon="104.7770491"><ele>320.8</ele><time>2026-02-04T22:05:07.000Z</time></trkpt>
        <trkpt lat="29.0089886" lon="104.7770449"><ele>320.2</ele><time>2026-02-04T22:05:21.000Z</time></trkpt>
        <trkpt lat="29.0088945" lon="104.7770527"><ele>322.13</ele><time>2026-02-04T22:05:37.000Z</time></trkpt>
        <trkpt lat="29.0087901" lon="104.7770742"><ele>323.07</ele><time>2026-02-04T22:05:57.000Z</time></trkpt>
        <trkpt lat="29.0086954" lon="104.7771054"><ele>323.81</ele><time>2026-02-04T22:06:05.000Z</time></trkpt>
        <trkpt lat="29.0085915" lon="104.7771504"><ele>324.15</ele><time>2026-02-04T22:06:13.000Z</time></trkpt>
        <trkpt lat="29.0085007" lon="104.7771982"><ele>324.34</ele><time>2026-02-04T22:06:21.000Z</time></trkpt>
        <trkpt lat="29.0084077" lon="104.7772457"><ele>324.97</ele><time>2026-02-04T22:06:29.000Z</time></trkpt>
        <trkpt lat="29.0083084" lon="104.7772998"><ele>324.94</ele><time>2026-02-04T22:06:37.000Z</time></trkpt>
        <trkpt lat="29.008208" lon="104.7773345"><ele>324.19</ele><time>2026-02-04T22:06:45.000Z</time></trkpt>
        <trkpt lat="29.0081049" lon="104.7773666"><ele>324.58</ele><time>2026-02-04T22:06:55.000Z</time></trkpt>
        <trkpt lat="29.0080437" lon="104.7773734"><ele>325.45</ele><time>2026-02-04T22:07:09.000Z</time></trkpt>
        <trkpt lat="29.0079579" lon="104.7773478"><ele>324.48</ele><time>2026-02-04T22:08:03.000Z</time></trkpt>
        <trkpt lat="29.007876" lon="104.7772894"><ele>327.24</ele><time>2026-02-04T22:08:11.000Z</time></trkpt>
        <trkpt lat="29.0078008" lon="104.7772054"><ele>330.11</ele><time>2026-02-04T22:08:23.000Z</time></trkpt>
        <trkpt lat="29.0077542" lon="104.7771616"><ele>330.66</ele><time>2026-02-04T22:08:35.000Z</time></trkpt>
        <trkpt lat="29.0077164" lon="104.7770706"><ele>330.55</ele><time>2026-02-04T22:09:09.000Z</time></trkpt>
        <trkpt lat="29.0076386" lon="104.7770155"><ele>329.45</ele><time>2026-02-04T22:09:35.000Z</time></trkpt>
        <trkpt lat="29.0075436" lon="104.7769746"><ele>327.8</ele><time>2026-02-04T22:09:55.000Z</time></trkpt>
        <trkpt lat="29.0074487" lon="104.7769481"><ele>327.15</ele><time>2026-02-04T22:10:13.000Z</time></trkpt>
        <trkpt lat="29.0073732" lon="104.7768907"><ele>325.28</ele><time>2026-02-04T22:10:31.000Z</time></trkpt>
        <trkpt lat="29.007298" lon="104.7768218"><ele>322.41</ele><time>2026-02-04T22:11:07.000Z</time></trkpt>
        <trkpt lat="29.0072262" lon="104.7767497"><ele>319.82</ele><time>2026-02-04T22:11:19.000Z</time></trkpt>
        <trkpt lat="29.0071314" lon="104.7767113"><ele>318.14</ele><time>2026-02-04T22:11:49.000Z</time></trkpt>
        <trkpt lat="29.0070468" lon="104.776666"><ele>316.87</ele><time>2026-02-04T22:12:04.000Z</time></trkpt>
        <trkpt lat="29.0069817" lon="104.7765967"><ele>314.26</ele><time>2026-02-04T22:13:10.000Z</time></trkpt>
        <trkpt lat="29.0068917" lon="104.7765533"><ele>312.43</ele><time>2026-02-04T22:13:38.000Z</time></trkpt>
        <trkpt lat="29.0068059" lon="104.7765072"><ele>308.89</ele><time>2026-02-04T22:14:02.000Z</time></trkpt>
        <trkpt lat="29.0067017" lon="104.7764333"><ele>304.76</ele><time>2026-02-04T22:15:26.000Z</time></trkpt>
        <trkpt lat="29.006615" lon="104.776375"><ele>301.42</ele><time>2026-02-04T22:16:10.000Z</time></trkpt>
        <trkpt lat="29.0065636" lon="104.7762786"><ele>297.59</ele><time>2026-02-04T22:17:08.000Z</time></trkpt>
        <trkpt lat="29.0065313" lon="104.7761767"><ele>293.85</ele><time>2026-02-04T22:17:34.000Z</time></trkpt>
        <trkpt lat="29.006539" lon="104.776073"><ele>288.8</ele><time>2026-02-04T22:17:52.000Z</time></trkpt>
        <trkpt lat="29.0065763" lon="104.7759642"><ele>284.02</ele><time>2026-02-04T22:18:02.000Z</time></trkpt>
        <trkpt lat="29.0065715" lon="104.775883"><ele>281.6</ele><time>2026-02-04T22:18:26.000Z</time></trkpt>
        <trkpt lat="29.006593" lon="104.7757877"><ele>282.03</ele><time>2026-02-04T22:19:10.000Z</time></trkpt>
        <trkpt lat="29.0066509" lon="104.7757035"><ele>283.78</ele><time>2026-02-04T22:19:36.000Z</time></trkpt>
        <trkpt lat="29.0066671" lon="104.7755973"><ele>284.26</ele><time>2026-02-04T22:19:50.000Z</time></trkpt>
        <trkpt lat="29.0066517" lon="104.7754837"><ele>284.28</ele><time>2026-02-04T22:20:12.000Z</time></trkpt>
        <trkpt lat="29.0067007" lon="104.7754073"><ele>283.77</ele><time>2026-02-04T22:20:26.000Z</time></trkpt>
        <trkpt lat="29.0067894" lon="104.7753878"><ele>281.38</ele><time>2026-02-04T22:20:44.000Z</time></trkpt>
        <trkpt lat="29.0068249" lon="104.7753112"><ele>280.18</ele><time>2026-02-04T22:21:37.000Z</time></trkpt>
        <trkpt lat="29.006884" lon="104.7752336"><ele>278.3</ele><time>2026-02-04T22:21:49.000Z</time></trkpt>
        <trkpt lat="29.0069466" lon="104.7751555"><ele>280.02</ele><time>2026-02-04T22:22:11.000Z</time></trkpt>
        <trkpt lat="29.007026" lon="104.7750839"><ele>284.18</ele><time>2026-02-04T22:22:31.000Z</time></trkpt>
        <trkpt lat="29.0071172" lon="104.7750114"><ele>287.72</ele><time>2026-02-04T22:22:43.000Z</time></trkpt>
        <trkpt lat="29.0072027" lon="104.7749484"><ele>288.27</ele><time>2026-02-04T22:22:55.000Z</time></trkpt>
        <trkpt lat="29.0072811" lon="104.7748838"><ele>287.77</ele><time>2026-02-04T22:23:23.000Z</time></trkpt>
        <trkpt lat="29.0073679" lon="104.7748331"><ele>288.73</ele><time>2026-02-04T22:24:04.000Z</time></trkpt>
        <trkpt lat="29.0074553" lon="104.7747998"><ele>290.05</ele><time>2026-02-04T22:24:14.000Z</time></trkpt>
        <trkpt lat="29.0075339" lon="104.7747469"><ele>292.14</ele><time>2026-02-04T22:24:24.000Z</time></trkpt>
        <trkpt lat="29.0075702" lon="104.7747243"><ele>294.44</ele><time>2026-02-04T22:24:36.000Z</time></trkpt>
        <trkpt lat="29.0075325" lon="104.774638"><ele>296.53</ele><time>2026-02-04T22:25:00.000Z</time></trkpt>
        <trkpt lat="29.0075042" lon="104.7746947"><ele>296.65</ele><time>2026-02-04T22:25:32.000Z</time></trkpt>
        <trkpt lat="29.0075385" lon="104.774636"><ele>290.35</ele><time>2026-02-04T22:26:00.000Z</time></trkpt>
        <trkpt lat="29.0075366" lon="104.7746966"><ele>288.39</ele><time>2026-02-04T22:26:14.000Z</time></trkpt>
        <trkpt lat="29.0075382" lon="104.7746408"><ele>286.59</ele><time>2026-02-04T22:26:43.000Z</time></trkpt>
        <trkpt lat="29.0076094" lon="104.7746053"><ele>286.21</ele><time>2026-02-04T22:27:24.000Z</time></trkpt>
        <trkpt lat="29.0077083" lon="104.7745283"><ele>293.04</ele><time>2026-02-04T22:28:35.000Z</time></trkpt>
        <trkpt lat="29.0078017" lon="104.7745033"><ele>295.48</ele><time>2026-02-04T22:29:25.000Z</time></trkpt>
        <trkpt lat="29.0079006" lon="104.7744826"><ele>296.95</ele><time>2026-02-04T22:29:57.000Z</time></trkpt>
        <trkpt lat="29.0079569" lon="104.7744008"><ele>297.53</ele><time>2026-02-04T22:30:13.000Z</time></trkpt>
        <trkpt lat="29.0080349" lon="104.7743552"><ele>300.06</ele><time>2026-02-04T22:30:37.000Z</time></trkpt>
        <trkpt lat="29.0081445" lon="104.7743343"><ele>301.54</ele><time>2026-02-04T22:30:45.000Z</time></trkpt>
        <trkpt lat="29.008243" lon="104.7742822"><ele>302.64</ele><time>2026-02-04T22:30:51.000Z</time></trkpt>
        <trkpt lat="29.0083008" lon="104.7742535"><ele>301.63</ele><time>2026-02-04T22:30:55.000Z</time></trkpt>
        <trkpt lat="29.0083972" lon="104.7742168"><ele>301.1</ele><time>2026-02-04T22:31:05.000Z</time></trkpt>
        <trkpt lat="29.0085022" lon="104.7741813"><ele>300.5</ele><time>2026-02-04T22:31:15.000Z</time></trkpt>
        <trkpt lat="29.0086069" lon="104.7741288"><ele>300.97</ele><time>2026-02-04T22:31:23.000Z</time></trkpt>
        <trkpt lat="29.0086603" lon="104.7740374"><ele>301.63</ele><time>2026-02-04T22:31:39.000Z</time></trkpt>
        <trkpt lat="29.008735" lon="104.77403"><ele>300.15</ele><time>2026-02-04T22:33:17.000Z</time></trkpt>
        <trkpt lat="29.0086433" lon="104.774025"><ele>297.16</ele><time>2026-02-04T22:35:14.000Z</time></trkpt>
        <trkpt lat="29.008655" lon="104.7739133"><ele>293.61</ele><time>2026-02-04T22:35:58.000Z</time></trkpt>
        <trkpt lat="29.008725" lon="104.7738"><ele>293.39</ele><time>2026-02-04T22:37:08.000Z</time></trkpt>
        <trkpt lat="29.00866" lon="104.773725"><ele>290.17</ele><time>2026-02-04T22:39:06.000Z</time></trkpt>
        <trkpt lat="29.0086583" lon="104.7737467"><ele>288.5</ele><time>2026-02-04T22:39:14.000Z</time></trkpt>
        <trkpt lat="29.0086045" lon="104.7736738"><ele>287.69</ele><time>2026-02-04T22:39:44.000Z</time></trkpt>
        <trkpt lat="29.0085167" lon="104.7736033"><ele>286.23</ele><time>2026-02-04T22:41:04.000Z</time></trkpt>
        <trkpt lat="29.0084233" lon="104.77355"><ele>282.78</ele><time>2026-02-04T22:41:16.000Z</time></trkpt>
        <trkpt lat="29.0083229" lon="104.7735263"><ele>281.54</ele><time>2026-02-04T22:41:30.000Z</time></trkpt>
        <trkpt lat="29.0082599" lon="104.7735889"><ele>281.18</ele><time>2026-02-04T22:41:50.000Z</time></trkpt>
        <trkpt lat="29.0082687" lon="104.7735243"><ele>280.54</ele><time>2026-02-04T22:42:22.000Z</time></trkpt>
        <trkpt lat="29.00826" lon="104.7733967"><ele>277.17</ele><time>2026-02-04T22:43:46.000Z</time></trkpt>
        <trkpt lat="29.0082733" lon="104.7732917"><ele>273.22</ele><time>2026-02-04T22:43:58.000Z</time></trkpt>
        <trkpt lat="29.0083558" lon="104.773284"><ele>271.15</ele><time>2026-02-04T22:44:14.000Z</time></trkpt>
        <trkpt lat="29.0084517" lon="104.7732845"><ele>268.5</ele><time>2026-02-04T22:44:24.000Z</time></trkpt>
        <trkpt lat="29.0085535" lon="104.7732793"><ele>269.58</ele><time>2026-02-04T22:44:32.000Z</time></trkpt>
        <trkpt lat="29.0086473" lon="104.773248"><ele>270.92</ele><time>2026-02-04T22:44:42.000Z</time></trkpt>
        <trkpt lat="29.0087242" lon="104.7731773"><ele>272.29</ele><time>2026-02-04T22:44:52.000Z</time></trkpt>
        <trkpt lat="29.0087857" lon="104.7730953"><ele>272.85</ele><time>2026-02-04T22:45:02.000Z</time></trkpt>
        <trkpt lat="29.0088497" lon="104.7730106"><ele>273.48</ele><time>2026-02-04T22:45:12.000Z</time></trkpt>
        <trkpt lat="29.0088971" lon="104.7729582"><ele>273.36</ele><time>2026-02-04T22:45:26.000Z</time></trkpt>
        <trkpt lat="29.0089177" lon="104.7728712"><ele>273.2</ele><time>2026-02-04T22:45:38.000Z</time></trkpt>
        <trkpt lat="29.0089534" lon="104.7727604"><ele>270.53</ele><time>2026-02-04T22:45:48.000Z</time></trkpt>
        <trkpt lat="29.0089454" lon="104.7726472"><ele>268.54</ele><time>2026-02-04T22:45:58.000Z</time></trkpt>
        <trkpt lat="29.0089254" lon="104.7725213"><ele>269.17</ele><time>2026-02-04T22:46:10.000Z</time></trkpt>
        <trkpt lat="29.0088636" lon="104.772367"><ele>268.67</ele><time>2026-02-04T22:46:16.000Z</time></trkpt>
        <trkpt lat="29.008776" lon="104.7722787"><ele>268.29</ele><time>2026-02-04T22:46:20.000Z</time></trkpt>
        <trkpt lat="29.0086647" lon="104.7722669"><ele>265.63</ele><time>2026-02-04T22:46:24.000Z</time></trkpt>
        <trkpt lat="29.0085556" lon="104.7722919"><ele>267.51</ele><time>2026-02-04T22:46:32.000Z</time></trkpt>
        <trkpt lat="29.0084589" lon="104.7722899"><ele>268.62</ele><time>2026-02-04T22:46:44.000Z</time></trkpt>
        <trkpt lat="29.0083871" lon="104.7722216"><ele>266.51</ele><time>2026-02-04T22:47:04.000Z</time></trkpt>
        <trkpt lat="29.0084008" lon="104.7722996"><ele>267.54</ele><time>2026-02-04T22:47:20.000Z</time></trkpt>
        <trkpt lat="29.0083531" lon="104.7722939"><ele>267.09</ele><time>2026-02-04T22:47:40.000Z</time></trkpt>
        <trkpt lat="29.0083138" lon="104.7722022"><ele>266.15</ele><time>2026-02-04T22:47:46.000Z</time></trkpt>
        <trkpt lat="29.0082632" lon="104.7721017"><ele>267.42</ele><time>2026-02-04T22:47:56.000Z</time></trkpt>
        <trkpt lat="29.0081906" lon="104.7720008"><ele>268.4</ele><time>2026-02-04T22:48:04.000Z</time></trkpt>
        <trkpt lat="29.0081068" lon="104.7719356"><ele>267.28</ele><time>2026-02-04T22:48:12.000Z</time></trkpt>
        <trkpt lat="29.0080179" lon="104.7718977"><ele>268.41</ele><time>2026-02-04T22:48:20.000Z</time></trkpt>
        <trkpt lat="29.0079898" lon="104.7718025"><ele>270.13</ele><time>2026-02-04T22:48:40.000Z</time></trkpt>
        <trkpt lat="29.008" lon="104.7717306"><ele>269</ele><time>2026-02-04T22:48:42.000Z</time></trkpt>
        <trkpt lat="29.0079539" lon="104.7716667"><ele>267.84</ele><time>2026-02-04T22:48:54.000Z</time></trkpt>
        <trkpt lat="29.0079536" lon="104.7715719"><ele>267.78</ele><time>2026-02-04T22:49:00.000Z</time></trkpt>
        <trkpt lat="29.0080252" lon="104.7715002"><ele>266.37</ele><time>2026-02-04T22:49:06.000Z</time></trkpt>
        <trkpt lat="29.0081161" lon="104.7714246"><ele>265.39</ele><time>2026-02-04T22:49:14.000Z</time></trkpt>
        <trkpt lat="29.0081541" lon="104.7714085"><ele>263.93</ele><time>2026-02-04T22:49:16.000Z</time></trkpt>
        <trkpt lat="29.0081402" lon="104.7713313"><ele>262.84</ele><time>2026-02-04T22:49:28.000Z</time></trkpt>
        <trkpt lat="29.008077" lon="104.7712386"><ele>261.88</ele><time>2026-02-04T22:49:40.000Z</time></trkpt>
        <trkpt lat="29.0080318" lon="104.7711343"><ele>261.37</ele><time>2026-02-04T22:50:02.000Z</time></trkpt>
        <trkpt lat="29.0079674" lon="104.7711589"><ele>262.67</ele><time>2026-02-04T22:50:46.000Z</time></trkpt>
        <trkpt lat="29.0078951" lon="104.7711233"><ele>261.35</ele><time>2026-02-04T22:51:22.000Z</time></trkpt>
        <trkpt lat="29.0078102" lon="104.7710656"><ele>262.15</ele><time>2026-02-04T22:51:32.000Z</time></trkpt>
        <trkpt lat="29.0077648" lon="104.7710312"><ele>262.13</ele><time>2026-02-04T22:51:48.000Z</time></trkpt>
        <trkpt lat="29.0078041" lon="104.7709688"><ele>262.59</ele><time>2026-02-04T22:52:06.000Z</time></trkpt>
        <trkpt lat="29.0077465" lon="104.7709383"><ele>259.93</ele><time>2026-02-04T22:52:22.000Z</time></trkpt>
        <trkpt lat="29.0076555" lon="104.7709018"><ele>258.28</ele><time>2026-02-04T22:52:38.000Z</time></trkpt>
        <trkpt lat="29.0076426" lon="104.7708106"><ele>258.29</ele><time>2026-02-04T22:53:18.000Z</time></trkpt>
        <trkpt lat="29.0076061" lon="104.7708457"><ele>259.8</ele><time>2026-02-04T22:53:42.000Z</time></trkpt>
        <trkpt lat="29.0075396" lon="104.7708021"><ele>260.36</ele><time>2026-02-04T22:54:00.000Z</time></trkpt>
        <trkpt lat="29.0074734" lon="104.770723"><ele>261.15</ele><time>2026-02-04T22:54:12.000Z</time></trkpt>
        <trkpt lat="29.0073988" lon="104.7706525"><ele>261.43</ele><time>2026-02-04T22:54:58.000Z</time></trkpt>
        <trkpt lat="29.0074883" lon="104.7706667"><ele>260.3</ele><time>2026-02-04T22:56:24.000Z</time></trkpt>
        <trkpt lat="29.00741" lon="104.7706133"><ele>259.91</ele><time>2026-02-04T22:57:26.000Z</time></trkpt>
        <trkpt lat="29.0073817" lon="104.77051"><ele>260.6</ele><time>2026-02-04T23:01:06.000Z</time></trkpt>
        <trkpt lat="29.0073817" lon="104.7703933"><ele>259.87</ele><time>2026-02-04T23:04:44.000Z</time></trkpt>
        <trkpt lat="29.0073667" lon="104.7702867"><ele>261.13</ele><time>2026-02-04T23:05:04.000Z</time></trkpt>
        <trkpt lat="29.0072783" lon="104.7702567"><ele>263.48</ele><time>2026-02-04T23:06:21.000Z</time></trkpt>
        <trkpt lat="29.0072283" lon="104.7703483"><ele>264.31</ele><time>2026-02-04T23:06:53.000Z</time></trkpt>
        <trkpt lat="29.0072065" lon="104.7703991"><ele>264.78</ele><time>2026-02-04T23:07:05.000Z</time></trkpt>
        <trkpt lat="29.00725" lon="104.7702833"><ele>264.7</ele><time>2026-02-04T23:08:51.000Z</time></trkpt>
        <trkpt lat="29.0072017" lon="104.7701867"><ele>263.54</ele><time>2026-02-04T23:09:21.000Z</time></trkpt>
        <trkpt lat="29.0071167" lon="104.7701478"><ele>264.08</ele><time>2026-02-04T23:09:31.000Z</time></trkpt>
        <trkpt lat="29.007029" lon="104.7701475"><ele>263.92</ele><time>2026-02-04T23:09:53.000Z</time></trkpt>
        <trkpt lat="29.0069354" lon="104.7701357"><ele>263.48</ele><time>2026-02-04T23:10:09.000Z</time></trkpt>
        <trkpt lat="29.0068414" lon="104.7701329"><ele>264.78</ele><time>2026-02-04T23:10:46.000Z</time></trkpt>
        <trkpt lat="29.0067368" lon="104.7701084"><ele>265.26</ele><time>2026-02-04T23:10:58.000Z</time></trkpt>
        <trkpt lat="29.0066313" lon="104.7700911"><ele>266.22</ele><time>2026-02-04T23:11:08.000Z</time></trkpt>
        <trkpt lat="29.0065339" lon="104.7701108"><ele>265.78</ele><time>2026-02-04T23:11:18.000Z</time></trkpt>
        <trkpt lat="29.0064763" lon="104.770189"><ele>265.62</ele><time>2026-02-04T23:11:32.000Z</time></trkpt>
        <trkpt lat="29.0063992" lon="104.7702239"><ele>269.09</ele><time>2026-02-04T23:11:48.000Z</time></trkpt>
        <trkpt lat="29.0063001" lon="104.7702348"><ele>271.81</ele><time>2026-02-04T23:12:02.000Z</time></trkpt>
        <trkpt lat="29.0062017" lon="104.770261"><ele>273.48</ele><time>2026-02-04T23:12:14.000Z</time></trkpt>
        <trkpt lat="29.0060997" lon="104.7702602"><ele>273.83</ele><time>2026-02-04T23:12:34.000Z</time></trkpt>
        <trkpt lat="29.006" lon="104.7702933"><ele>274.29</ele><time>2026-02-04T23:14:16.000Z</time></trkpt>
        <trkpt lat="29.0059283" lon="104.7703617"><ele>274.73</ele><time>2026-02-04T23:15:32.000Z</time></trkpt>
        <trkpt lat="29.0058317" lon="104.7703467"><ele>271.88</ele><time>2026-02-04T23:15:46.000Z</time></trkpt>
        <trkpt lat="29.0057421" lon="104.7703669"><ele>272.27</ele><time>2026-02-04T23:15:56.000Z</time></trkpt>
        <trkpt lat="29.0056563" lon="104.7703986"><ele>270.65</ele><time>2026-02-04T23:16:10.000Z</time></trkpt>
        <trkpt lat="29.0055943" lon="104.7703462"><ele>268.61</ele><time>2026-02-04T23:16:24.000Z</time></trkpt>
        <trkpt lat="29.0055106" lon="104.7703378"><ele>270.8</ele><time>2026-02-04T23:16:44.000Z</time></trkpt>
        <trkpt lat="29.0054176" lon="104.7703565"><ele>273.47</ele><time>2026-02-04T23:16:56.000Z</time></trkpt>
        <trkpt lat="29.0053266" lon="104.7703497"><ele>274.73</ele><time>2026-02-04T23:17:06.000Z</time></trkpt>
        <trkpt lat="29.0052346" lon="104.7703507"><ele>276.82</ele><time>2026-02-04T23:17:24.000Z</time></trkpt>
        <trkpt lat="29.0051524" lon="104.7703112"><ele>278.15</ele><time>2026-02-04T23:17:55.000Z</time></trkpt>
        <trkpt lat="29.0050577" lon="104.7703144"><ele>284.79</ele><time>2026-02-04T23:18:23.000Z</time></trkpt>
        <trkpt lat="29.0049719" lon="104.7703503"><ele>281.74</ele><time>2026-02-04T23:18:53.000Z</time></trkpt>
        <trkpt lat="29.0048859" lon="104.7703344"><ele>279.57</ele><time>2026-02-04T23:19:39.000Z</time></trkpt>
        <trkpt lat="29.0048135" lon="104.7703834"><ele>276.4</ele><time>2026-02-04T23:20:11.000Z</time></trkpt>
        <trkpt lat="29.0047321" lon="104.7704503"><ele>276.79</ele><time>2026-02-04T23:20:25.000Z</time></trkpt>
        <trkpt lat="29.0046453" lon="104.7705059"><ele>276.45</ele><time>2026-02-04T23:20:41.000Z</time></trkpt>
        <trkpt lat="29.0045554" lon="104.7705337"><ele>277.33</ele><time>2026-02-04T23:20:53.000Z</time></trkpt>
        <trkpt lat="29.004471" lon="104.770587"><ele>280.2</ele><time>2026-02-04T23:21:47.000Z</time></trkpt>
        <trkpt lat="29.0043951" lon="104.770548"><ele>281.49</ele><time>2026-02-04T23:22:13.000Z</time></trkpt>
        <trkpt lat="29.0043561" lon="104.7704533"><ele>280.46</ele><time>2026-02-04T23:22:25.000Z</time></trkpt>
        <trkpt lat="29.0043125" lon="104.7703504"><ele>278.93</ele><time>2026-02-04T23:22:39.000Z</time></trkpt>
        <trkpt lat="29.0042774" lon="104.7702425"><ele>277.33</ele><time>2026-02-04T23:23:35.000Z</time></trkpt>
        <trkpt lat="29.0042194" lon="104.7701587"><ele>274.95</ele><time>2026-02-04T23:23:45.000Z</time></trkpt>
        <trkpt lat="29.0041308" lon="104.7701095"><ele>273.12</ele><time>2026-02-04T23:23:59.000Z</time></trkpt>
        <trkpt lat="29.0041745" lon="104.7701253"><ele>272.34</ele><time>2026-02-04T23:24:53.000Z</time></trkpt>
        <trkpt lat="29.0042548" lon="104.770198"><ele>271.12</ele><time>2026-02-04T23:25:05.000Z</time></trkpt>
        <trkpt lat="29.004286" lon="104.7703557"><ele>269.48</ele><time>2026-02-04T23:25:39.000Z</time></trkpt>
        <trkpt lat="29.0042527" lon="104.7704787"><ele>266.9</ele><time>2026-02-04T23:26:21.000Z</time></trkpt>
        <trkpt lat="29.0042767" lon="104.770395"><ele>265.1</ele><time>2026-02-04T23:29:39.000Z</time></trkpt>
        <trkpt lat="29.0043667" lon="104.77037"><ele>268.24</ele><time>2026-02-04T23:30:05.000Z</time></trkpt>
        <trkpt lat="29.0044158" lon="104.7704437"><ele>268.01</ele><time>2026-02-04T23:30:23.000Z</time></trkpt>
        <trkpt lat="29.00445" lon="104.7705583"><ele>267.06</ele><time>2026-02-04T23:31:31.000Z</time></trkpt>
        <trkpt lat="29.004545" lon="104.7705217"><ele>267.03</ele><time>2026-02-04T23:31:59.000Z</time></trkpt>
        <trkpt lat="29.0046104" lon="104.7704427"><ele>267.19</ele><time>2026-02-04T23:32:17.000Z</time></trkpt>
        <trkpt lat="29.0047014" lon="104.7704167"><ele>269.04</ele><time>2026-02-04T23:32:35.000Z</time></trkpt>
        <trkpt lat="29.004784" lon="104.7703744"><ele>270.75</ele><time>2026-02-04T23:32:49.000Z</time></trkpt>
        <trkpt lat="29.0048644" lon="104.7703266"><ele>271.76</ele><time>2026-02-04T23:33:07.000Z</time></trkpt>
        <trkpt lat="29.0049566" lon="104.7703153"><ele>272.03</ele><time>2026-02-04T23:33:55.000Z</time></trkpt>
        <trkpt lat="29.0050509" lon="104.7703003"><ele>271.42</ele><time>2026-02-04T23:34:11.000Z</time></trkpt>
        <trkpt lat="29.0051466" lon="104.7703195"><ele>270.76</ele><time>2026-02-04T23:34:25.000Z</time></trkpt>
        <trkpt lat="29.0052424" lon="104.7703104"><ele>270.01</ele><time>2026-02-04T23:34:37.000Z</time></trkpt>
        <trkpt lat="29.0053392" lon="104.7702736"><ele>268.15</ele><time>2026-02-04T23:34:53.000Z</time></trkpt>
        <trkpt lat="29.0054174" lon="104.7703209"><ele>264.69</ele><time>2026-02-04T23:35:07.000Z</time></trkpt>
        <trkpt lat="29.005505" lon="104.77034"><ele>262.59</ele><time>2026-02-04T23:36:37.000Z</time></trkpt>
        <trkpt lat="29.00561" lon="104.770355"><ele>267.45</ele><time>2026-02-04T23:36:51.000Z</time></trkpt>
        <trkpt lat="29.0056403" lon="104.7704433"><ele>269.15</ele><time>2026-02-04T23:37:07.000Z</time></trkpt>
        <trkpt lat="29.0056354" lon="104.7705524"><ele>270.2</ele><time>2026-02-04T23:37:29.000Z</time></trkpt>
        <trkpt lat="29.0055766" lon="104.7706407"><ele>269</ele><time>2026-02-04T23:37:55.000Z</time></trkpt>
        <trkpt lat="29.0055204" lon="104.7707424"><ele>269.82</ele><time>2026-02-04T23:38:47.000Z</time></trkpt>
        <trkpt lat="29.0054296" lon="104.7707548"><ele>271.31</ele><time>2026-02-04T23:38:59.000Z</time></trkpt>
        <trkpt lat="29.0053237" lon="104.7707698"><ele>277.12</ele><time>2026-02-04T23:39:15.000Z</time></trkpt>
        <trkpt lat="29.0052231" lon="104.7707714"><ele>284.29</ele><time>2026-02-04T23:39:31.000Z</time></trkpt>
        <trkpt lat="29.0051282" lon="104.7707966"><ele>291.31</ele><time>2026-02-04T23:39:43.000Z</time></trkpt>
        <trkpt lat="29.0050452" lon="104.7708598"><ele>298.1</ele><time>2026-02-04T23:40:03.000Z</time></trkpt>
        <trkpt lat="29.0049468" lon="104.7708803"><ele>303.99</ele><time>2026-02-04T23:40:17.000Z</time></trkpt>
        <trkpt lat="29.004846" lon="104.7708767"><ele>307.7</ele><time>2026-02-04T23:40:27.000Z</time></trkpt>
        <trkpt lat="29.0047711" lon="104.7709142"><ele>312.26</ele><time>2026-02-04T23:40:37.000Z</time></trkpt>
        <trkpt lat="29.0046887" lon="104.7708811"><ele>317.91</ele><time>2026-02-04T23:40:53.000Z</time></trkpt>
        <trkpt lat="29.004596" lon="104.7708998"><ele>321.43</ele><time>2026-02-04T23:41:03.000Z</time></trkpt>
        <trkpt lat="29.0045633" lon="104.7709858"><ele>324.04</ele><time>2026-02-04T23:41:19.000Z</time></trkpt>
        <trkpt lat="29.0046167" lon="104.7710739"><ele>326.26</ele><time>2026-02-04T23:41:35.000Z</time></trkpt>
        <trkpt lat="29.0046861" lon="104.771161"><ele>325.8</ele><time>2026-02-04T23:41:43.000Z</time></trkpt>
        <trkpt lat="29.0047462" lon="104.7712529"><ele>324.51</ele><time>2026-02-04T23:42:03.000Z</time></trkpt>
        <trkpt lat="29.0048124" lon="104.7713352"><ele>321.32</ele><time>2026-02-04T23:42:17.000Z</time></trkpt>
        <trkpt lat="29.0048791" lon="104.7714182"><ele>320.54</ele><time>2026-02-04T23:42:40.000Z</time></trkpt>
        <trkpt lat="29.0049385" lon="104.7715028"><ele>322.11</ele><time>2026-02-04T23:42:52.000Z</time></trkpt>
        <trkpt lat="29.0050121" lon="104.7715741"><ele>321.98</ele><time>2026-02-04T23:43:12.000Z</time></trkpt>
        <trkpt lat="29.0049719" lon="104.7715328"><ele>322.85</ele><time>2026-02-04T23:43:34.000Z</time></trkpt>
        <trkpt lat="29.0048881" lon="104.7715524"><ele>325.8</ele><time>2026-02-04T23:44:08.000Z</time></trkpt>
        <trkpt lat="29.0048619" lon="104.7714644"><ele>328.46</ele><time>2026-02-04T23:44:40.000Z</time></trkpt>
        <trkpt lat="29.0048621" lon="104.7713384"><ele>329.64</ele><time>2026-02-04T23:45:00.000Z</time></trkpt>
        <trkpt lat="29.004875" lon="104.7714283"><ele>331.9</ele><time>2026-02-04T23:46:42.000Z</time></trkpt>
        <trkpt lat="29.0048467" lon="104.771325"><ele>332.63</ele><time>2026-02-04T23:47:10.000Z</time></trkpt>
        <trkpt lat="29.0048931" lon="104.771381"><ele>335.41</ele><time>2026-02-04T23:47:20.000Z</time></trkpt>
        <trkpt lat="29.0048678" lon="104.7713109"><ele>336.14</ele><time>2026-02-04T23:47:32.000Z</time></trkpt>
        <trkpt lat="29.0049008" lon="104.771399"><ele>336.04</ele><time>2026-02-04T23:47:42.000Z</time></trkpt>
        <trkpt lat="29.0049283" lon="104.7715433"><ele>335.98</ele><time>2026-02-04T23:49:00.000Z</time></trkpt>
        <trkpt lat="29.00491" lon="104.77141"><ele>336.93</ele><time>2026-02-04T23:49:10.000Z</time></trkpt>
        <trkpt lat="29.0048663" lon="104.7713147"><ele>337.91</ele><time>2026-02-04T23:49:24.000Z</time></trkpt>
        <trkpt lat="29.0048663" lon="104.7713147"><ele>337.91</ele><time>2026-02-04T23:49:24.000Z</time></trkpt>
        <trkpt lat="29.0048067" lon="104.771725"><ele>338.5</ele><time>2026-02-04T23:54:28.000Z</time></trkpt>
        <trkpt lat="29.0048067" lon="104.771725"><ele>338.5</ele><time>2026-02-04T23:54:34.000Z</time></trkpt>
        <trkpt lat="29.0047733" lon="104.77155"><ele>338.5</ele><time>2026-02-04T23:54:38.000Z</time></trkpt>
        <trkpt lat="29.0048133" lon="104.7714145"><ele>339.96</ele><time>2026-02-04T23:54:58.000Z</time></trkpt>
        <trkpt lat="29.0048522" lon="104.7713104"><ele>341.23</ele><time>2026-02-04T23:55:30.000Z</time></trkpt>
        <trkpt lat="29.0048822" lon="104.7713694"><ele>341.04</ele><time>2026-02-04T23:56:12.000Z</time></trkpt>
        <trkpt lat="29.0048507" lon="104.7713379"><ele>338.4</ele><time>2026-02-04T23:57:00.000Z</time></trkpt>
        <trkpt lat="29.0048799" lon="104.7714078"><ele>333.8</ele><time>2026-02-04T23:57:34.000Z</time></trkpt>
        <trkpt lat="29.0048294" lon="104.7713801"><ele>329.93</ele><time>2026-02-04T23:57:50.000Z</time></trkpt>
        <trkpt lat="29.0047418" lon="104.7713735"><ele>328.67</ele><time>2026-02-04T23:58:14.000Z</time></trkpt>
        <trkpt lat="29.0046679" lon="104.7714382"><ele>325.76</ele><time>2026-02-04T23:58:32.000Z</time></trkpt>
        <trkpt lat="29.0046017" lon="104.7715214"><ele>322.42</ele><time>2026-02-04T23:58:44.000Z</time></trkpt>
        <trkpt lat="29.0046217" lon="104.7714383"><ele>322.24</ele><time>2026-02-04T23:59:56.000Z</time></trkpt>
        <trkpt lat="29.0046783" lon="104.7713483"><ele>321.75</ele><time>2026-02-05T00:00:10.000Z</time></trkpt>
        <trkpt lat="29.004759" lon="104.7712978"><ele>322.24</ele><time>2026-02-05T00:00:22.000Z</time></trkpt>
        <trkpt lat="29.0048439" lon="104.7713482"><ele>321.67</ele><time>2026-02-05T00:00:34.000Z</time></trkpt>
        <trkpt lat="29.0049264" lon="104.7714241"><ele>320.3</ele><time>2026-02-05T00:00:46.000Z</time></trkpt>
        <trkpt lat="29.004969" lon="104.7715368"><ele>319.57</ele><time>2026-02-05T00:01:08.000Z</time></trkpt>
        <trkpt lat="29.0049539" lon="104.7716612"><ele>321.35</ele><time>2026-02-05T00:01:42.000Z</time></trkpt>
        <trkpt lat="29.0048823" lon="104.7717639"><ele>330.19</ele><time>2026-02-05T00:01:56.000Z</time></trkpt>
        <trkpt lat="29.0048331" lon="104.7718718"><ele>335.05</ele><time>2026-02-05T00:02:30.000Z</time></trkpt>
        <trkpt lat="29.0049013" lon="104.771906"><ele>336.06</ele><time>2026-02-05T00:02:58.000Z</time></trkpt>
        <trkpt lat="29.0049114" lon="104.7719929"><ele>336.6</ele><time>2026-02-05T00:03:26.000Z</time></trkpt>
        <trkpt lat="29.0049309" lon="104.7721054"><ele>337.76</ele><time>2026-02-05T00:03:50.000Z</time></trkpt>
        <trkpt lat="29.0050068" lon="104.7721523"><ele>341.69</ele><time>2026-02-05T00:04:04.000Z</time></trkpt>
        <trkpt lat="29.0051065" lon="104.772151"><ele>344.45</ele><time>2026-02-05T00:04:38.000Z</time></trkpt>
        <trkpt lat="29.0051491" lon="104.7721471"><ele>348.34</ele><time>2026-02-05T00:04:40.000Z</time></trkpt>
        <trkpt lat="29.0051853" lon="104.7722139"><ele>350.35</ele><time>2026-02-05T00:04:54.000Z</time></trkpt>
        <trkpt lat="29.005123" lon="104.7722963"><ele>350.5</ele><time>2026-02-05T00:05:08.000Z</time></trkpt>
        <trkpt lat="29.0050421" lon="104.772388"><ele>352.31</ele><time>2026-02-05T00:05:24.000Z</time></trkpt>
        <trkpt lat="29.0049554" lon="104.7724683"><ele>359.01</ele><time>2026-02-05T00:05:38.000Z</time></trkpt>
        <trkpt lat="29.0048608" lon="104.7725026"><ele>363.83</ele><time>2026-02-05T00:05:48.000Z</time></trkpt>
        <trkpt lat="29.0047646" lon="104.7725337"><ele>367.38</ele><time>2026-02-05T00:06:04.000Z</time></trkpt>
        <trkpt lat="29.0046696" lon="104.7725584"><ele>369.8</ele><time>2026-02-05T00:06:16.000Z</time></trkpt>
        <trkpt lat="29.0045911" lon="104.7726147"><ele>372.51</ele><time>2026-02-05T00:06:28.000Z</time></trkpt>
        <trkpt lat="29.0045492" lon="104.7727201"><ele>374.05</ele><time>2026-02-05T00:06:38.000Z</time></trkpt>
        <trkpt lat="29.004545" lon="104.7728347"><ele>373.69</ele><time>2026-02-05T00:06:58.000Z</time></trkpt>
        <trkpt lat="29.0046111" lon="104.7729106"><ele>372.83</ele><time>2026-02-05T00:07:10.000Z</time></trkpt>
        <trkpt lat="29.0046959" lon="104.7729713"><ele>371.92</ele><time>2026-02-05T00:07:18.000Z</time></trkpt>
        <trkpt lat="29.0047768" lon="104.7730387"><ele>370.79</ele><time>2026-02-05T00:07:34.000Z</time></trkpt>
        <trkpt lat="29.0048673" lon="104.773076"><ele>369.37</ele><time>2026-02-05T00:07:52.000Z</time></trkpt>
        <trkpt lat="29.0049332" lon="104.7731578"><ele>369.64</ele><time>2026-02-05T00:08:04.000Z</time></trkpt>
        <trkpt lat="29.0050223" lon="104.7731788"><ele>370.57</ele><time>2026-02-05T00:08:18.000Z</time></trkpt>
        <trkpt lat="29.0050729" lon="104.7732562"><ele>369.29</ele><time>2026-02-05T00:08:40.000Z</time></trkpt>
        <trkpt lat="29.005027" lon="104.7733317"><ele>366.37</ele><time>2026-02-05T00:08:54.000Z</time></trkpt>
        <trkpt lat="29.00495" lon="104.7734174"><ele>363.42</ele><time>2026-02-05T00:09:10.000Z</time></trkpt>
        <trkpt lat="29.0049353" lon="104.7735309"><ele>360.44</ele><time>2026-02-05T00:09:20.000Z</time></trkpt>
        <trkpt lat="29.0049057" lon="104.7736487"><ele>360.81</ele><time>2026-02-05T00:09:34.000Z</time></trkpt>
        <trkpt lat="29.0048813" lon="104.7737647"><ele>361.67</ele><time>2026-02-05T00:10:02.000Z</time></trkpt>
        <trkpt lat="29.0048052" lon="104.7738386"><ele>363.83</ele><time>2026-02-05T00:10:18.000Z</time></trkpt>
        <trkpt lat="29.004744" lon="104.7739317"><ele>364.68</ele><time>2026-02-05T00:10:30.000Z</time></trkpt>
        <trkpt lat="29.0047236" lon="104.774035"><ele>364.95</ele><time>2026-02-05T00:10:44.000Z</time></trkpt>
        <trkpt lat="29.0047163" lon="104.7741432"><ele>364.84</ele><time>2026-02-05T00:11:02.000Z</time></trkpt>
        <trkpt lat="29.0047163" lon="104.7741432"><ele>364.84</ele><time>2026-02-05T00:11:02.000Z</time></trkpt>
        <trkpt lat="29.005055" lon="104.7755933"><ele>371.7</ele><time>2026-02-05T00:17:21.000Z</time></trkpt>
        <trkpt lat="29.005055" lon="104.7755933"><ele>371.7</ele><time>2026-02-05T00:17:24.000Z</time></trkpt>
        <trkpt lat="29.0050983" lon="104.77569"><ele>371.7</ele><time>2026-02-05T00:17:27.000Z</time></trkpt>
        <trkpt lat="29.0051332" lon="104.7757867"><ele>372.09</ele><time>2026-02-05T00:17:46.000Z</time></trkpt>
        <trkpt lat="29.0051306" lon="104.7759065"><ele>371.4</ele><time>2026-02-05T00:17:56.000Z</time></trkpt>
        <trkpt lat="29.0051337" lon="104.7760223"><ele>371.06</ele><time>2026-02-05T00:18:08.000Z</time></trkpt>
        <trkpt lat="29.0051301" lon="104.7760859"><ele>369.87</ele><time>2026-02-05T00:18:20.000Z</time></trkpt>
        <trkpt lat="29.0051475" lon="104.7761737"><ele>370.4</ele><time>2026-02-05T00:18:40.000Z</time></trkpt>
        <trkpt lat="29.0051708" lon="104.7762718"><ele>370.83</ele><time>2026-02-05T00:18:54.000Z</time></trkpt>
        <trkpt lat="29.0051117" lon="104.7763612"><ele>371.51</ele><time>2026-02-05T00:19:06.000Z</time></trkpt>
        <trkpt lat="29.0050243" lon="104.7764381"><ele>371.25</ele><time>2026-02-05T00:19:14.000Z</time></trkpt>
        <trkpt lat="29.0049558" lon="104.7765269"><ele>370.62</ele><time>2026-02-05T00:19:24.000Z</time></trkpt>
        <trkpt lat="29.0049104" lon="104.7766322"><ele>369.49</ele><time>2026-02-05T00:19:34.000Z</time></trkpt>
        <trkpt lat="29.0048707" lon="104.7767482"><ele>368.81</ele><time>2026-02-05T00:19:44.000Z</time></trkpt>
        <trkpt lat="29.004836" lon="104.7768508"><ele>368.07</ele><time>2026-02-05T00:19:54.000Z</time></trkpt>
        <trkpt lat="29.0047574" lon="104.7769149"><ele>367.14</ele><time>2026-02-05T00:20:04.000Z</time></trkpt>
        <trkpt lat="29.0046734" lon="104.7768848"><ele>367.04</ele><time>2026-02-05T00:20:20.000Z</time></trkpt>
        <trkpt lat="29.0045832" lon="104.7768276"><ele>369.77</ele><time>2026-02-05T00:20:36.000Z</time></trkpt>
        <trkpt lat="29.0044821" lon="104.7768018"><ele>371.38</ele><time>2026-02-05T00:20:57.000Z</time></trkpt>
        <trkpt lat="29.0044231" lon="104.7768649"><ele>370.7</ele><time>2026-02-05T00:21:16.000Z</time></trkpt>
        <trkpt lat="29.004525" lon="104.77691"><ele>368.16</ele><time>2026-02-05T00:23:52.000Z</time></trkpt>
        <trkpt lat="29.0045933" lon="104.77698"><ele>366.2</ele><time>2026-02-05T00:24:02.000Z</time></trkpt>
        <trkpt lat="29.004649" lon="104.7770754"><ele>365.34</ele><time>2026-02-05T00:24:14.000Z</time></trkpt>
        <trkpt lat="29.0046934" lon="104.777174"><ele>364.72</ele><time>2026-02-05T00:24:28.000Z</time></trkpt>
        <trkpt lat="29.004684" lon="104.7772837"><ele>364.32</ele><time>2026-02-05T00:24:42.000Z</time></trkpt>
        <trkpt lat="29.0046433" lon="104.7773908"><ele>364.7</ele><time>2026-02-05T00:25:02.000Z</time></trkpt>
        <trkpt lat="29.0046118" lon="104.7774997"><ele>365</ele><time>2026-02-05T00:25:16.000Z</time></trkpt>
        <trkpt lat="29.0045884" lon="104.7776126"><ele>365.35</ele><time>2026-02-05T00:25:26.000Z</time></trkpt>
        <trkpt lat="29.0046008" lon="104.7777305"><ele>363.43</ele><time>2026-02-05T00:25:34.000Z</time></trkpt>
        <trkpt lat="29.0045476" lon="104.7777971"><ele>363.38</ele><time>2026-02-05T00:25:49.000Z</time></trkpt>
        <trkpt lat="29.0045037" lon="104.7778884"><ele>359.6</ele><time>2026-02-05T00:26:11.000Z</time></trkpt>
        <trkpt lat="29.0045717" lon="104.7778083"><ele>354.09</ele><time>2026-02-05T00:27:38.000Z</time></trkpt>
        <trkpt lat="29.0046617" lon="104.77784"><ele>346.14</ele><time>2026-02-05T00:27:50.000Z</time></trkpt>
        <trkpt lat="29.004636" lon="104.7779224"><ele>341.39</ele><time>2026-02-05T00:28:48.000Z</time></trkpt>
        <trkpt lat="29.0045822" lon="104.7780139"><ele>336.66</ele><time>2026-02-05T00:29:10.000Z</time></trkpt>
        <trkpt lat="29.0044851" lon="104.7780256"><ele>333.24</ele><time>2026-02-05T00:29:26.000Z</time></trkpt>
        <trkpt lat="29.0043823" lon="104.7780377"><ele>330.38</ele><time>2026-02-05T00:29:36.000Z</time></trkpt>
        <trkpt lat="29.0044095" lon="104.7781032"><ele>328.02</ele><time>2026-02-05T00:29:46.000Z</time></trkpt>
        <trkpt lat="29.0045208" lon="104.7781299"><ele>327.2</ele><time>2026-02-05T00:29:52.000Z</time></trkpt>
        <trkpt lat="29.0046361" lon="104.7781242"><ele>325.86</ele><time>2026-02-05T00:30:04.000Z</time></trkpt>
        <trkpt lat="29.0046161" lon="104.7781829"><ele>324.59</ele><time>2026-02-05T00:30:42.000Z</time></trkpt>
        <trkpt lat="29.0045338" lon="104.7782261"><ele>322.7</ele><time>2026-02-05T00:30:50.000Z</time></trkpt>
        <trkpt lat="29.0044326" lon="104.7782452"><ele>321.45</ele><time>2026-02-05T00:30:58.000Z</time></trkpt>
        <trkpt lat="29.0043232" lon="104.7782738"><ele>322.59</ele><time>2026-02-05T00:31:08.000Z</time></trkpt>
        <trkpt lat="29.00422" lon="104.7783058"><ele>323.46</ele><time>2026-02-05T00:31:18.000Z</time></trkpt>
        <trkpt lat="29.0041294" lon="104.778274"><ele>321.63</ele><time>2026-02-05T00:31:30.000Z</time></trkpt>
        <trkpt lat="29.004037" lon="104.778255"><ele>318.39</ele><time>2026-02-05T00:31:40.000Z</time></trkpt>
        <trkpt lat="29.0039412" lon="104.7782855"><ele>314.35</ele><time>2026-02-05T00:31:50.000Z</time></trkpt>
        <trkpt lat="29.0038769" lon="104.778364"><ele>308.48</ele><time>2026-02-05T00:31:56.000Z</time></trkpt>
        <trkpt lat="29.0038418" lon="104.7784679"><ele>303.71</ele><time>2026-02-05T00:32:00.000Z</time></trkpt>
        <trkpt lat="29.0038095" lon="104.7785873"><ele>300.87</ele><time>2026-02-05T00:32:08.000Z</time></trkpt>
        <trkpt lat="29.0037771" lon="104.7786953"><ele>299.59</ele><time>2026-02-05T00:32:16.000Z</time></trkpt>
        <trkpt lat="29.0037218" lon="104.7787977"><ele>301.66</ele><time>2026-02-05T00:32:28.000Z</time></trkpt>
        <trkpt lat="29.0036486" lon="104.7788772"><ele>301.07</ele><time>2026-02-05T00:32:38.000Z</time></trkpt>
        <trkpt lat="29.0035623" lon="104.778947"><ele>298.59</ele><time>2026-02-05T00:32:48.000Z</time></trkpt>
        <trkpt lat="29.0034675" lon="104.7789807"><ele>297</ele><time>2026-02-05T00:33:04.000Z</time></trkpt>
        <trkpt lat="29.0033662" lon="104.778936"><ele>300.01</ele><time>2026-02-05T00:33:14.000Z</time></trkpt>
        <trkpt lat="29.0032762" lon="104.7788639"><ele>303.28</ele><time>2026-02-05T00:33:22.000Z</time></trkpt>
        <trkpt lat="29.0031788" lon="104.7788126"><ele>306.34</ele><time>2026-02-05T00:33:30.000Z</time></trkpt>
        <trkpt lat="29.0030837" lon="104.7787658"><ele>309.42</ele><time>2026-02-05T00:33:38.000Z</time></trkpt>
        <trkpt lat="29.0030199" lon="104.7787133"><ele>311.99</ele><time>2026-02-05T00:33:52.000Z</time></trkpt>
        <trkpt lat="29.0029387" lon="104.7786752"><ele>315.91</ele><time>2026-02-05T00:34:32.000Z</time></trkpt>
        <trkpt lat="29.002857" lon="104.7786994"><ele>315.35</ele><time>2026-02-05T00:35:04.000Z</time></trkpt>
        <trkpt lat="29.002769" lon="104.7787333"><ele>313.39</ele><time>2026-02-05T00:35:12.000Z</time></trkpt>
        <trkpt lat="29.0026711" lon="104.7787758"><ele>312.02</ele><time>2026-02-05T00:35:22.000Z</time></trkpt>
        <trkpt lat="29.0025738" lon="104.7787852"><ele>311.37</ele><time>2026-02-05T00:35:32.000Z</time></trkpt>
        <trkpt lat="29.00247" lon="104.7788032"><ele>311.81</ele><time>2026-02-05T00:35:42.000Z</time></trkpt>
        <trkpt lat="29.0023716" lon="104.7788115"><ele>313.87</ele><time>2026-02-05T00:35:50.000Z</time></trkpt>
        <trkpt lat="29.0022783" lon="104.7788575"><ele>315</ele><time>2026-02-05T00:35:58.000Z</time></trkpt>
        <trkpt lat="29.0021881" lon="104.7788628"><ele>314.79</ele><time>2026-02-05T00:36:06.000Z</time></trkpt>
        <trkpt lat="29.0020937" lon="104.7788325"><ele>314.06</ele><time>2026-02-05T00:36:16.000Z</time></trkpt>
        <trkpt lat="29.002005" lon="104.7787931"><ele>311.75</ele><time>2026-02-05T00:36:24.000Z</time></trkpt>
        <trkpt lat="29.0019272" lon="104.7788231"><ele>307.9</ele><time>2026-02-05T00:36:36.000Z</time></trkpt>
        <trkpt lat="29.0018819" lon="104.7789117"><ele>303.17</ele><time>2026-02-05T00:36:50.000Z</time></trkpt>
        <trkpt lat="29.0018552" lon="104.7789349"><ele>298.54</ele><time>2026-02-05T00:37:02.000Z</time></trkpt>
        <trkpt lat="29.001915" lon="104.7788217"><ele>294.86</ele><time>2026-02-05T00:38:08.000Z</time></trkpt>
        <trkpt lat="29.0018183" lon="104.7788133"><ele>289.46</ele><time>2026-02-05T00:38:22.000Z</time></trkpt>
        <trkpt lat="29.0017499" lon="104.7787458"><ele>287.54</ele><time>2026-02-05T00:38:34.000Z</time></trkpt>
        <trkpt lat="29.0017289" lon="104.7787037"><ele>286.15</ele><time>2026-02-05T00:38:46.000Z</time></trkpt>
        <trkpt lat="29.0017692" lon="104.7787609"><ele>285.7</ele><time>2026-02-05T00:38:54.000Z</time></trkpt>
        <trkpt lat="29.0018386" lon="104.7788451"><ele>284.79</ele><time>2026-02-05T00:39:02.000Z</time></trkpt>
        <trkpt lat="29.0019153" lon="104.7789293"><ele>284.67</ele><time>2026-02-05T00:39:12.000Z</time></trkpt>
        <trkpt lat="29.0019827" lon="104.7790153"><ele>285.93</ele><time>2026-02-05T00:39:22.000Z</time></trkpt>
        <trkpt lat="29.002054" lon="104.7790933"><ele>287.42</ele><time>2026-02-05T00:39:32.000Z</time></trkpt>
        <trkpt lat="29.0021372" lon="104.7791609"><ele>288.06</ele><time>2026-02-05T00:39:40.000Z</time></trkpt>
        <trkpt lat="29.0022301" lon="104.7791693"><ele>291.13</ele><time>2026-02-05T00:39:50.000Z</time></trkpt>
        <trkpt lat="29.0023319" lon="104.7791815"><ele>295.5</ele><time>2026-02-05T00:40:06.000Z</time></trkpt>
        <trkpt lat="29.0024397" lon="104.7791924"><ele>297.61</ele><time>2026-02-05T00:40:14.000Z</time></trkpt>
        <trkpt lat="29.0025222" lon="104.7792594"><ele>296.92</ele><time>2026-02-05T00:40:26.000Z</time></trkpt>
        <trkpt lat="29.0026084" lon="104.7792941"><ele>296.91</ele><time>2026-02-05T00:40:34.000Z</time></trkpt>
        <trkpt lat="29.0027056" lon="104.7793044"><ele>294.63</ele><time>2026-02-05T00:40:44.000Z</time></trkpt>
        <trkpt lat="29.0028084" lon="104.7793399"><ele>292.12</ele><time>2026-02-05T00:40:56.000Z</time></trkpt>
        <trkpt lat="29.0028877" lon="104.7794101"><ele>291.08</ele><time>2026-02-05T00:41:04.000Z</time></trkpt>
        <trkpt lat="29.0029491" lon="104.7795111"><ele>291.86</ele><time>2026-02-05T00:41:14.000Z</time></trkpt>
        <trkpt lat="29.0030213" lon="104.7795986"><ele>292.95</ele><time>2026-02-05T00:41:24.000Z</time></trkpt>
        <trkpt lat="29.0031064" lon="104.7796358"><ele>295.21</ele><time>2026-02-05T00:41:36.000Z</time></trkpt>
        <trkpt lat="29.003214" lon="104.7796463"><ele>297.7</ele><time>2026-02-05T00:41:48.000Z</time></trkpt>
        <trkpt lat="29.0033041" lon="104.7797008"><ele>299.29</ele><time>2026-02-05T00:41:58.000Z</time></trkpt>
        <trkpt lat="29.0033851" lon="104.779789"><ele>300.2</ele><time>2026-02-05T00:42:08.000Z</time></trkpt>
        <trkpt lat="29.0034416" lon="104.7798924"><ele>300.54</ele><time>2026-02-05T00:42:18.000Z</time></trkpt>
        <trkpt lat="29.0034722" lon="104.7800102"><ele>301.43</ele><time>2026-02-05T00:42:30.000Z</time></trkpt>
        <trkpt lat="29.0034661" lon="104.7801249"><ele>302.53</ele><time>2026-02-05T00:43:12.000Z</time></trkpt>
        <trkpt lat="29.003459" lon="104.7802442"><ele>304.63</ele><time>2026-02-05T00:43:24.000Z</time></trkpt>
        <trkpt lat="29.0034973" lon="104.7803642"><ele>306.04</ele><time>2026-02-05T00:43:34.000Z</time></trkpt>
        <trkpt lat="29.0035089" lon="104.7804813"><ele>308.13</ele><time>2026-02-05T00:43:42.000Z</time></trkpt>
        <trkpt lat="29.0035229" lon="104.7805869"><ele>308.76</ele><time>2026-02-05T00:43:54.000Z</time></trkpt>
        <trkpt lat="29.0035898" lon="104.7806194"><ele>307.96</ele><time>2026-02-05T00:44:06.000Z</time></trkpt>
        <trkpt lat="29.00368" lon="104.7805883"><ele>311.72</ele><time>2026-02-05T00:44:18.000Z</time></trkpt>
        <trkpt lat="29.0037697" lon="104.7805244"><ele>316.96</ele><time>2026-02-05T00:44:32.000Z</time></trkpt>
        <trkpt lat="29.0038351" lon="104.7805607"><ele>322.18</ele><time>2026-02-05T00:44:44.000Z</time></trkpt>
        <trkpt lat="29.0039165" lon="104.7806198"><ele>324.94</ele><time>2026-02-05T00:44:52.000Z</time></trkpt>
        <trkpt lat="29.0039981" lon="104.780658"><ele>325.57</ele><time>2026-02-05T00:45:16.000Z</time></trkpt>
        <trkpt lat="29.0040783" lon="104.7807833"><ele>320.68</ele><time>2026-02-05T00:46:20.000Z</time></trkpt>
        <trkpt lat="29.0041817" lon="104.78078"><ele>318.06</ele><time>2026-02-05T00:47:06.000Z</time></trkpt>
        <trkpt lat="29.0042723" lon="104.7807992"><ele>313.18</ele><time>2026-02-05T00:47:24.000Z</time></trkpt>
        <trkpt lat="29.004362" lon="104.7808199"><ele>311.51</ele><time>2026-02-05T00:47:34.000Z</time></trkpt>
        <trkpt lat="29.0044638" lon="104.7808373"><ele>310.34</ele><time>2026-02-05T00:47:50.000Z</time></trkpt>
        <trkpt lat="29.0045665" lon="104.780847"><ele>312.6</ele><time>2026-02-05T00:47:58.000Z</time></trkpt>
        <trkpt lat="29.0046716" lon="104.7808587"><ele>313.51</ele><time>2026-02-05T00:48:08.000Z</time></trkpt>
        <trkpt lat="29.0047221" lon="104.780874"><ele>312.47</ele><time>2026-02-05T00:48:14.000Z</time></trkpt>
        <trkpt lat="29.0048" lon="104.7808769"><ele>311.54</ele><time>2026-02-05T00:48:36.000Z</time></trkpt>
        <trkpt lat="29.0048782" lon="104.7808288"><ele>311.95</ele><time>2026-02-05T00:48:44.000Z</time></trkpt>
        <trkpt lat="29.0048639" lon="104.7808778"><ele>317.56</ele><time>2026-02-05T00:49:30.000Z</time></trkpt>
        <trkpt lat="29.0049222" lon="104.7808728"><ele>325.8</ele><time>2026-02-05T00:50:24.000Z</time></trkpt>
        <trkpt lat="29.0049307" lon="104.7809645"><ele>328.59</ele><time>2026-02-05T00:51:04.000Z</time></trkpt>
        <trkpt lat="29.0048921" lon="104.7809286"><ele>329.16</ele><time>2026-02-05T00:51:20.000Z</time></trkpt>
        <trkpt lat="29.004955" lon="104.7808683"><ele>333.39</ele><time>2026-02-05T00:52:58.000Z</time></trkpt>
        <trkpt lat="29.0048967" lon="104.7809517"><ele>337.95</ele><time>2026-02-05T00:53:40.000Z</time></trkpt>
        <trkpt lat="29.004796" lon="104.7809786"><ele>341.03</ele><time>2026-02-05T00:54:14.000Z</time></trkpt>
        <trkpt lat="29.0048063" lon="104.781065"><ele>341.92</ele><time>2026-02-05T00:54:40.000Z</time></trkpt>
        <trkpt lat="29.0048063" lon="104.781065"><ele>341.92</ele><time>2026-02-05T00:54:40.000Z</time></trkpt>
        <trkpt lat="29.0040567" lon="104.7830067"><ele>352.8</ele><time>2026-02-05T01:17:29.000Z</time></trkpt>
        <trkpt lat="29.0040567" lon="104.7830067"><ele>352.8</ele><time>2026-02-05T01:19:00.000Z</time></trkpt>
        <trkpt lat="29.0041383" lon="104.7829567"><ele>352.8</ele><time>2026-02-05T01:19:08.000Z</time></trkpt>
        <trkpt lat="29.0042538" lon="104.7828672"><ele>357.4</ele><time>2026-02-05T01:19:12.000Z</time></trkpt>
        <trkpt lat="29.0043136" lon="104.7829225"><ele>350.13</ele><time>2026-02-05T01:19:36.000Z</time></trkpt>
        <trkpt lat="29.0043987" lon="104.7829702"><ele>346.81</ele><time>2026-02-05T01:19:52.000Z</time></trkpt>
        <trkpt lat="29.0044792" lon="104.7834454"><ele>345.81</ele><time>2026-02-05T01:20:32.000Z</time></trkpt>
        <trkpt lat="29.0044163" lon="104.7836026"><ele>341.59</ele><time>2026-02-05T01:20:36.000Z</time></trkpt>
        <trkpt lat="29.0043574" lon="104.7837897"><ele>333.12</ele><time>2026-02-05T01:20:59.000Z</time></trkpt>
        <trkpt lat="29.0043431" lon="104.7838514"><ele>338.49</ele><time>2026-02-05T01:21:01.000Z</time></trkpt>
        <trkpt lat="29.0042062" lon="104.7838653"><ele>344.65</ele><time>2026-02-05T01:21:19.000Z</time></trkpt>
        <trkpt lat="29.0042784" lon="104.7839428"><ele>332.28</ele><time>2026-02-05T01:21:23.000Z</time></trkpt>
        <trkpt lat="29.0043472" lon="104.7840449"><ele>313.79</ele><time>2026-02-05T01:21:31.000Z</time></trkpt>
        <trkpt lat="29.0043291" lon="104.7841459"><ele>315</ele><time>2026-02-05T01:21:51.000Z</time></trkpt>
        <trkpt lat="29.0042502" lon="104.784205"><ele>320.98</ele><time>2026-02-05T01:21:55.000Z</time></trkpt>
        <trkpt lat="29.0043132" lon="104.7842582"><ele>323.48</ele><time>2026-02-05T01:22:05.000Z</time></trkpt>
        <trkpt lat="29.0044427" lon="104.7842685"><ele>324.31</ele><time>2026-02-05T01:22:11.000Z</time></trkpt>
        <trkpt lat="29.0045563" lon="104.784247"><ele>327.06</ele><time>2026-02-05T01:22:17.000Z</time></trkpt>
        <trkpt lat="29.0046626" lon="104.7842007"><ele>328.24</ele><time>2026-02-05T01:22:23.000Z</time></trkpt>
        <trkpt lat="29.0047036" lon="104.7841549"><ele>329.3</ele><time>2026-02-05T01:22:27.000Z</time></trkpt>
        <trkpt lat="29.0047335" lon="104.7840611"><ele>330.5</ele><time>2026-02-05T01:22:47.000Z</time></trkpt>
        <trkpt lat="29.0047049" lon="104.784103"><ele>332.87</ele><time>2026-02-05T01:22:51.000Z</time></trkpt>
        <trkpt lat="29.0047523" lon="104.7840977"><ele>333.66</ele><time>2026-02-05T01:23:07.000Z</time></trkpt>
        <trkpt lat="29.0048481" lon="104.784111"><ele>338.84</ele><time>2026-02-05T01:23:19.000Z</time></trkpt>
        <trkpt lat="29.0049122" lon="104.7840468"><ele>343.98</ele><time>2026-02-05T01:23:35.000Z</time></trkpt>
        <trkpt lat="29.0049937" lon="104.7839993"><ele>349.02</ele><time>2026-02-05T01:23:47.000Z</time></trkpt>
        <trkpt lat="29.0050587" lon="104.7839754"><ele>341.18</ele><time>2026-02-05T01:24:03.000Z</time></trkpt>
        <trkpt lat="29.0051518" lon="104.7840049"><ele>334.48</ele><time>2026-02-05T01:24:17.000Z</time></trkpt>
        <trkpt lat="29.0052442" lon="104.7840769"><ele>330.23</ele><time>2026-02-05T01:24:29.000Z</time></trkpt>
        <trkpt lat="29.0053425" lon="104.7841386"><ele>329.53</ele><time>2026-02-05T01:24:37.000Z</time></trkpt>
        <trkpt lat="29.0054235" lon="104.7842037"><ele>329</ele><time>2026-02-05T01:24:47.000Z</time></trkpt>
        <trkpt lat="29.0055113" lon="104.7842547"><ele>328.91</ele><time>2026-02-05T01:24:57.000Z</time></trkpt>
        <trkpt lat="29.0055946" lon="104.7843095"><ele>332.48</ele><time>2026-02-05T01:25:05.000Z</time></trkpt>
        <trkpt lat="29.0056549" lon="104.784332"><ele>336.53</ele><time>2026-02-05T01:25:17.000Z</time></trkpt>
        <trkpt lat="29.0057321" lon="104.7843565"><ele>339.57</ele><time>2026-02-05T01:25:29.000Z</time></trkpt>
        <trkpt lat="29.0058282" lon="104.7843509"><ele>343.89</ele><time>2026-02-05T01:25:39.000Z</time></trkpt>
        <trkpt lat="29.0059346" lon="104.7843037"><ele>346.64</ele><time>2026-02-05T01:25:51.000Z</time></trkpt>
        <trkpt lat="29.0060387" lon="104.7842898"><ele>349.25</ele><time>2026-02-05T01:26:03.000Z</time></trkpt>
        <trkpt lat="29.0061458" lon="104.7842714"><ele>350.05</ele><time>2026-02-05T01:26:11.000Z</time></trkpt>
        <trkpt lat="29.0062472" lon="104.7842688"><ele>351.36</ele><time>2026-02-05T01:26:23.000Z</time></trkpt>
        <trkpt lat="29.0063499" lon="104.7842685"><ele>351.72</ele><time>2026-02-05T01:26:33.000Z</time></trkpt>
        <trkpt lat="29.0064531" lon="104.7842671"><ele>352.27</ele><time>2026-02-05T01:26:49.000Z</time></trkpt>
        <trkpt lat="29.0065627" lon="104.7842809"><ele>352.41</ele><time>2026-02-05T01:26:59.000Z</time></trkpt>
        <trkpt lat="29.0066609" lon="104.7842989"><ele>352.75</ele><time>2026-02-05T01:27:07.000Z</time></trkpt>
        <trkpt lat="29.0067308" lon="104.7843638"><ele>352.77</ele><time>2026-02-05T01:27:15.000Z</time></trkpt>
        <trkpt lat="29.0068019" lon="104.7844501"><ele>352.66</ele><time>2026-02-05T01:27:25.000Z</time></trkpt>
        <trkpt lat="29.0068553" lon="104.7845438"><ele>352.89</ele><time>2026-02-05T01:27:39.000Z</time></trkpt>
        <trkpt lat="29.0069219" lon="104.7846174"><ele>353.28</ele><time>2026-02-05T01:27:47.000Z</time></trkpt>
        <trkpt lat="29.0069872" lon="104.7846993"><ele>353.68</ele><time>2026-02-05T01:27:59.000Z</time></trkpt>
        <trkpt lat="29.0070584" lon="104.7847793"><ele>353.56</ele><time>2026-02-05T01:28:09.000Z</time></trkpt>
        <trkpt lat="29.0070954" lon="104.7848784"><ele>352.89</ele><time>2026-02-05T01:28:23.000Z</time></trkpt>
        <trkpt lat="29.0071485" lon="104.7849717"><ele>352.16</ele><time>2026-02-05T01:28:33.000Z</time></trkpt>
        <trkpt lat="29.0072255" lon="104.7850406"><ele>351.32</ele><time>2026-02-05T01:28:43.000Z</time></trkpt>
        <trkpt lat="29.0073113" lon="104.7850088"><ele>351.18</ele><time>2026-02-05T01:28:55.000Z</time></trkpt>
        <trkpt lat="29.0073714" lon="104.7849014"><ele>352.26</ele><time>2026-02-05T01:29:05.000Z</time></trkpt>
        <trkpt lat="29.0074122" lon="104.7847725"><ele>354.17</ele><time>2026-02-05T01:29:15.000Z</time></trkpt>
        <trkpt lat="29.0074693" lon="104.7846545"><ele>355.6</ele><time>2026-02-05T01:29:23.000Z</time></trkpt>
        <trkpt lat="29.0075451" lon="104.784568"><ele>356.51</ele><time>2026-02-05T01:29:33.000Z</time></trkpt>
        <trkpt lat="29.0076301" lon="104.7845052"><ele>357.62</ele><time>2026-02-05T01:29:43.000Z</time></trkpt>
        <trkpt lat="29.007725" lon="104.7844668"><ele>357.96</ele><time>2026-02-05T01:29:57.000Z</time></trkpt>
        <trkpt lat="29.007781" lon="104.7843792"><ele>357.89</ele><time>2026-02-05T01:30:15.000Z</time></trkpt>
        <trkpt lat="29.0077891" lon="104.7842678"><ele>357.16</ele><time>2026-02-05T01:30:27.000Z</time></trkpt>
        <trkpt lat="29.0077863" lon="104.7841517"><ele>358.6</ele><time>2026-02-05T01:30:37.000Z</time></trkpt>
        <trkpt lat="29.0077529" lon="104.7840435"><ele>360.23</ele><time>2026-02-05T01:30:51.000Z</time></trkpt>
        <trkpt lat="29.0077295" lon="104.7839283"><ele>361.6</ele><time>2026-02-05T01:31:03.000Z</time></trkpt>
        <trkpt lat="29.0077077" lon="104.7838221"><ele>361.86</ele><time>2026-02-05T01:31:13.000Z</time></trkpt>
        <trkpt lat="29.0076926" lon="104.783711"><ele>362.13</ele><time>2026-02-05T01:31:27.000Z</time></trkpt>
        <trkpt lat="29.0077217" lon="104.7836091"><ele>362.85</ele><time>2026-02-05T01:31:35.000Z</time></trkpt>
        <trkpt lat="29.007763" lon="104.7835121"><ele>364.16</ele><time>2026-02-05T01:31:43.000Z</time></trkpt>
        <trkpt lat="29.0078188" lon="104.7834101"><ele>364.87</ele><time>2026-02-05T01:31:55.000Z</time></trkpt>
        <trkpt lat="29.0078529" lon="104.7832945"><ele>363.42</ele><time>2026-02-05T01:32:09.000Z</time></trkpt>
        <trkpt lat="29.0078797" lon="104.7831653"><ele>363.15</ele><time>2026-02-05T01:32:19.000Z</time></trkpt>
        <trkpt lat="29.0078841" lon="104.783048"><ele>364.89</ele><time>2026-02-05T01:32:29.000Z</time></trkpt>
        <trkpt lat="29.0078945" lon="104.7829414"><ele>366.14</ele><time>2026-02-05T01:32:39.000Z</time></trkpt>
        <trkpt lat="29.0079374" lon="104.7828422"><ele>366.51</ele><time>2026-02-05T01:32:49.000Z</time></trkpt>
        <trkpt lat="29.0080039" lon="104.782764"><ele>366.12</ele><time>2026-02-05T01:32:55.000Z</time></trkpt>
        <trkpt lat="29.0080788" lon="104.7826815"><ele>364.43</ele><time>2026-02-05T01:33:03.000Z</time></trkpt>
        <trkpt lat="29.0081496" lon="104.7825933"><ele>364.03</ele><time>2026-02-05T01:33:15.000Z</time></trkpt>
        <trkpt lat="29.0081836" lon="104.782495"><ele>363.67</ele><time>2026-02-05T01:33:27.000Z</time></trkpt>
        <trkpt lat="29.0081684" lon="104.7823943"><ele>364.46</ele><time>2026-02-05T01:33:39.000Z</time></trkpt>
        <trkpt lat="29.0081594" lon="104.7822794"><ele>366.24</ele><time>2026-02-05T01:33:49.000Z</time></trkpt>
        <trkpt lat="29.0081752" lon="104.7821548"><ele>367.69</ele><time>2026-02-05T01:33:59.000Z</time></trkpt>
        <trkpt lat="29.0082215" lon="104.7820589"><ele>367.99</ele><time>2026-02-05T01:34:07.000Z</time></trkpt>
        <trkpt lat="29.0082973" lon="104.7819721"><ele>366.88</ele><time>2026-02-05T01:34:15.000Z</time></trkpt>
        <trkpt lat="29.0083707" lon="104.7818976"><ele>364.69</ele><time>2026-02-05T01:34:27.000Z</time></trkpt>
        <trkpt lat="29.0084329" lon="104.7818153"><ele>360.7</ele><time>2026-02-05T01:34:39.000Z</time></trkpt>
        <trkpt lat="29.0085049" lon="104.7817352"><ele>357.73</ele><time>2026-02-05T01:34:49.000Z</time></trkpt>
        <trkpt lat="29.0085616" lon="104.7816369"><ele>355.57</ele><time>2026-02-05T01:34:59.000Z</time></trkpt>
        <trkpt lat="29.0086096" lon="104.781543"><ele>355.19</ele><time>2026-02-05T01:35:09.000Z</time></trkpt>
        <trkpt lat="29.0086625" lon="104.7814591"><ele>355.8</ele><time>2026-02-05T01:35:17.000Z</time></trkpt>
        <trkpt lat="29.0087242" lon="104.7813853"><ele>356.57</ele><time>2026-02-05T01:35:29.000Z</time></trkpt>
        <trkpt lat="29.0087604" lon="104.7812847"><ele>356.97</ele><time>2026-02-05T01:35:41.000Z</time></trkpt>
        <trkpt lat="29.0088158" lon="104.7811798"><ele>355.74</ele><time>2026-02-05T01:35:51.000Z</time></trkpt>
        <trkpt lat="29.0088655" lon="104.7810794"><ele>352.45</ele><time>2026-02-05T01:36:01.000Z</time></trkpt>
        <trkpt lat="29.0089278" lon="104.7809914"><ele>349.98</ele><time>2026-02-05T01:36:11.000Z</time></trkpt>
        <trkpt lat="29.008986" lon="104.7809082"><ele>348.78</ele><time>2026-02-05T01:36:19.000Z</time></trkpt>
        <trkpt lat="29.0090733" lon="104.7808637"><ele>346.98</ele><time>2026-02-05T01:36:31.000Z</time></trkpt>
        <trkpt lat="29.0091662" lon="104.7808565"><ele>344.15</ele><time>2026-02-05T01:36:39.000Z</time></trkpt>
        <trkpt lat="29.0092607" lon="104.7808393"><ele>340.47</ele><time>2026-02-05T01:36:47.000Z</time></trkpt>
        <trkpt lat="29.0093458" lon="104.78078"><ele>336.96</ele><time>2026-02-05T01:36:57.000Z</time></trkpt>
        <trkpt lat="29.009388" lon="104.7807242"><ele>335.3</ele><time>2026-02-05T01:37:01.000Z</time></trkpt>
        <trkpt lat="29.0094158" lon="104.7806212"><ele>335.08</ele><time>2026-02-05T01:37:09.000Z</time></trkpt>
        <trkpt lat="29.0093971" lon="104.7805041"><ele>337.07</ele><time>2026-02-05T01:37:21.000Z</time></trkpt>
        <trkpt lat="29.009337" lon="104.7804149"><ele>341.43</ele><time>2026-02-05T01:37:33.000Z</time></trkpt>
        <trkpt lat="29.0092969" lon="104.780312"><ele>345.46</ele><time>2026-02-05T01:37:47.000Z</time></trkpt>
        <trkpt lat="29.0092381" lon="104.7802125"><ele>347.28</ele><time>2026-02-05T01:38:01.000Z</time></trkpt>
        <trkpt lat="29.0092013" lon="104.780111"><ele>348.58</ele><time>2026-02-05T01:38:15.000Z</time></trkpt>
        <trkpt lat="29.0092166" lon="104.7800053"><ele>350.14</ele><time>2026-02-05T01:38:29.000Z</time></trkpt>
        <trkpt lat="29.0092069" lon="104.7798894"><ele>351.15</ele><time>2026-02-05T01:38:41.000Z</time></trkpt>
        <trkpt lat="29.0091449" lon="104.7797977"><ele>353.54</ele><time>2026-02-05T01:38:53.000Z</time></trkpt>
        <trkpt lat="29.0090635" lon="104.7797368"><ele>355.97</ele><time>2026-02-05T01:39:05.000Z</time></trkpt>
        <trkpt lat="29.0089703" lon="104.7796812"><ele>359.56</ele><time>2026-02-05T01:39:19.000Z</time></trkpt>
        <trkpt lat="29.0088841" lon="104.7796279"><ele>363.53</ele><time>2026-02-05T01:39:29.000Z</time></trkpt>
        <trkpt lat="29.0087936" lon="104.7795853"><ele>365.2</ele><time>2026-02-05T01:39:43.000Z</time></trkpt>
        <trkpt lat="29.0087172" lon="104.7795268"><ele>364.34</ele><time>2026-02-05T01:39:57.000Z</time></trkpt>
        <trkpt lat="29.0086429" lon="104.7794691"><ele>361.31</ele><time>2026-02-05T01:40:09.000Z</time></trkpt>
        <trkpt lat="29.0085525" lon="104.7794194"><ele>358.55</ele><time>2026-02-05T01:40:19.000Z</time></trkpt>
        <trkpt lat="29.0084772" lon="104.7793552"><ele>356.81</ele><time>2026-02-05T01:40:27.000Z</time></trkpt>
        <trkpt lat="29.0084344" lon="104.7792479"><ele>356.59</ele><time>2026-02-05T01:40:39.000Z</time></trkpt>
        <trkpt lat="29.0083968" lon="104.7791278"><ele>356.29</ele><time>2026-02-05T01:40:51.000Z</time></trkpt>
        <trkpt lat="29.0083603" lon="104.7790221"><ele>354.36</ele><time>2026-02-05T01:41:01.000Z</time></trkpt>
        <trkpt lat="29.0083504" lon="104.7789863"><ele>352.27</ele><time>2026-02-05T01:41:03.000Z</time></trkpt>
        <trkpt lat="29.0082968" lon="104.7789025"><ele>350.99</ele><time>2026-02-05T01:41:15.000Z</time></trkpt>
        <trkpt lat="29.0082204" lon="104.7788201"><ele>350.95</ele><time>2026-02-05T01:41:23.000Z</time></trkpt>
        <trkpt lat="29.008132" lon="104.7787339"><ele>352.52</ele><time>2026-02-05T01:41:33.000Z</time></trkpt>
        <trkpt lat="29.0080563" lon="104.7786403"><ele>353.8</ele><time>2026-02-05T01:41:43.000Z</time></trkpt>
        <trkpt lat="29.008007" lon="104.7785293"><ele>354.7</ele><time>2026-02-05T01:41:55.000Z</time></trkpt>
        <trkpt lat="29.0079537" lon="104.7784189"><ele>352.85</ele><time>2026-02-05T01:42:07.000Z</time></trkpt>
        <trkpt lat="29.0079152" lon="104.7783174"><ele>347.24</ele><time>2026-02-05T01:42:17.000Z</time></trkpt>
        <trkpt lat="29.0079229" lon="104.7782149"><ele>342.88</ele><time>2026-02-05T01:42:25.000Z</time></trkpt>
        <trkpt lat="29.0079715" lon="104.778113"><ele>339.92</ele><time>2026-02-05T01:42:33.000Z</time></trkpt>
        <trkpt lat="29.0080057" lon="104.7780027"><ele>337.63</ele><time>2026-02-05T01:42:45.000Z</time></trkpt>
        <trkpt lat="29.0080469" lon="104.7778966"><ele>335.38</ele><time>2026-02-05T01:42:57.000Z</time></trkpt>
        <trkpt lat="29.0080269" lon="104.7777889"><ele>334.18</ele><time>2026-02-05T01:43:09.000Z</time></trkpt>
        <trkpt lat="29.0080109" lon="104.7777469"><ele>332.08</ele><time>2026-02-05T01:43:11.000Z</time></trkpt>
        <trkpt lat="29.0079855" lon="104.7776576"><ele>330.71</ele><time>2026-02-05T01:43:21.000Z</time></trkpt>
        <trkpt lat="29.0079867" lon="104.7775537"><ele>327.7</ele><time>2026-02-05T01:43:31.000Z</time></trkpt>
        <trkpt lat="29.0080125" lon="104.7774503"><ele>325.29</ele><time>2026-02-05T01:43:39.000Z</time></trkpt>
        <trkpt lat="29.0080616" lon="104.7773457"><ele>325.42</ele><time>2026-02-05T01:43:49.000Z</time></trkpt>
        <trkpt lat="29.008175" lon="104.7773167"><ele>327.91</ele><time>2026-02-05T01:45:03.000Z</time></trkpt>
        <trkpt lat="29.008265" lon="104.77732"><ele>328.59</ele><time>2026-02-05T01:45:13.000Z</time></trkpt>
        <trkpt lat="29.0083649" lon="104.7772979"><ele>328.94</ele><time>2026-02-05T01:45:23.000Z</time></trkpt>
        <trkpt lat="29.0084729" lon="104.7772521"><ele>329.22</ele><time>2026-02-05T01:45:31.000Z</time></trkpt>
        <trkpt lat="29.008566" lon="104.7771862"><ele>327.15</ele><time>2026-02-05T01:45:43.000Z</time></trkpt>
        <trkpt lat="29.0086384" lon="104.7771115"><ele>324.16</ele><time>2026-02-05T01:45:51.000Z</time></trkpt>
        <trkpt lat="29.0087198" lon="104.7770732"><ele>321.6</ele><time>2026-02-05T01:46:07.000Z</time></trkpt>
        <trkpt lat="29.0088059" lon="104.777031"><ele>321.34</ele><time>2026-02-05T01:46:19.000Z</time></trkpt>
        <trkpt lat="29.0088952" lon="104.777"><ele>321.49</ele><time>2026-02-05T01:46:38.000Z</time></trkpt>
        <trkpt lat="29.0089943" lon="104.7770141"><ele>321.02</ele><time>2026-02-05T01:46:50.000Z</time></trkpt>
        <trkpt lat="29.009078" lon="104.7770714"><ele>322.13</ele><time>2026-02-05T01:47:14.000Z</time></trkpt>
        <trkpt lat="29.0091641" lon="104.7770376"><ele>322.46</ele><time>2026-02-05T01:47:30.000Z</time></trkpt>
        <trkpt lat="29.0092641" lon="104.7770005"><ele>322.61</ele><time>2026-02-05T01:47:40.000Z</time></trkpt>
        <trkpt lat="29.0093681" lon="104.7769662"><ele>323.16</ele><time>2026-02-05T01:47:52.000Z</time></trkpt>
        <trkpt lat="29.0094716" lon="104.7769486"><ele>320.99</ele><time>2026-02-05T01:48:00.000Z</time></trkpt>
        <trkpt lat="29.0095731" lon="104.7769428"><ele>319.79</ele><time>2026-02-05T01:48:10.000Z</time></trkpt>
        <trkpt lat="29.009636" lon="104.7769195"><ele>319.02</ele><time>2026-02-05T01:48:22.000Z</time></trkpt>
        <trkpt lat="29.0097235" lon="104.7768939"><ele>319.1</ele><time>2026-02-05T01:48:32.000Z</time></trkpt>
        <trkpt lat="29.0097796" lon="104.7768793"><ele>318.75</ele><time>2026-02-05T01:48:48.000Z</time></trkpt>
        <trkpt lat="29.0098553" lon="104.7768452"><ele>319.16</ele><time>2026-02-05T01:49:06.000Z</time></trkpt>
        <trkpt lat="29.0099485" lon="104.776796"><ele>319.39</ele><time>2026-02-05T01:49:30.000Z</time></trkpt>
        <trkpt lat="29.0100391" lon="104.7767598"><ele>318.71</ele><time>2026-02-05T01:49:44.000Z</time></trkpt>
        <trkpt lat="29.0101439" lon="104.7767359"><ele>316.42</ele><time>2026-02-05T01:49:52.000Z</time></trkpt>
        <trkpt lat="29.0102397" lon="104.7766975"><ele>315.68</ele><time>2026-02-05T01:50:04.000Z</time></trkpt>
        <trkpt lat="29.0103313" lon="104.7766395"><ele>314.66</ele><time>2026-02-05T01:50:16.000Z</time></trkpt>
        <trkpt lat="29.0103724" lon="104.7766048"><ele>314.29</ele><time>2026-02-05T01:50:26.000Z</time></trkpt>
        <trkpt lat="29.0104266" lon="104.7765323"><ele>314.47</ele><time>2026-02-05T01:50:48.000Z</time></trkpt>
        <trkpt lat="29.0104947" lon="104.7764504"><ele>315.47</ele><time>2026-02-05T01:50:58.000Z</time></trkpt>
        <trkpt lat="29.0105198" lon="104.7764195"><ele>314.06</ele><time>2026-02-05T01:51:06.000Z</time></trkpt>
        <trkpt lat="29.0105198" lon="104.7764195"><ele>314.06</ele><time>2026-02-05T01:51:21.000Z</time></trkpt>
      </trkseg>
  </trk>
</gpx>